Time;durP1;ratioP1;P1;durP2;ratioP2;P2;SDS_P1;SDS_P2;PMS_P1;PMS_P2;Temp;Humidity;BMP_temperature;BMP_pressure;BME280_temperature;BME280_humidity;BME280_pressure;Samples;Min_cycle;Max_cycle;Signal;HPM_P1;HPM_P2
2023/05/19 00:00:56;;;;;;;4.07;1.60;;;;;;;14.46;43.52;98582.72;8479469;27;20229;-71
2023/05/19 00:05:01;;;;;;;3.77;1.70;;;;;;;14.51;43.26;98579.03;8479614;27;20224;-71
2023/05/19 00:09:05;;;;;;;4.73;1.87;;;;;;;14.44;43.00;98573.31;8479540;28;20230;-72
2023/05/19 00:13:08;;;;;;;5.07;1.97;;;;;;;14.36;43.18;98560.66;8479464;28;20231;-71
2023/05/19 00:17:12;;;;;;;4.72;1.90;;;;;;;14.94;42.12;98569.88;8478502;27;20890;-71
2023/05/19 00:21:16;;;;;;;4.20;2.03;;;;;;;14.43;43.36;98555.97;8479076;28;20263;-71
2023/05/19 00:25:19;;;;;;;4.43;1.70;;;;;;;14.38;43.51;98568.41;8479009;28;20233;-72
2023/05/19 00:29:21;;;;;;;5.47;1.90;;;;;;;14.33;43.41;98558.19;8479277;28;20232;-72
2023/05/19 00:33:24;;;;;;;4.33;2.00;;;;;;;14.27;43.43;98551.53;8478908;27;20274;-71
2023/05/19 00:37:28;;;;;;;4.80;1.67;;;;;;;14.01;43.62;98511.19;8478762;28;20421;-71
2023/05/19 00:41:31;;;;;;;3.53;1.80;;;;;;;14.25;43.72;98552.53;8479020;28;20316;-71
2023/05/19 00:45:34;;;;;;;8.13;2.17;;;;;;;14.27;43.73;98550.69;8478555;28;20256;-71
2023/05/19 00:49:37;;;;;;;3.93;1.90;;;;;;;14.28;43.75;98545.41;8478982;28;20508;-71
2023/05/19 00:53:42;;;;;;;4.20;1.67;;;;;;;14.23;43.94;98547.41;8478875;28;20233;-71
2023/05/19 00:57:46;;;;;;;5.13;1.93;;;;;;;14.25;43.81;98548.16;8478717;28;20230;-70
2023/05/19 01:01:49;;;;;;;3.77;1.63;;;;;;;14.32;43.77;98534.81;8483289;27;20409;-71
2023/05/19 01:05:52;;;;;;;3.13;1.70;;;;;;;14.26;43.49;98539.44;8485026;27;20423;-71
2023/05/19 01:09:57;;;;;;;6.03;2.13;;;;;;;14.41;43.66;98532.63;8485129;28;20411;-71
2023/05/19 01:14:00;;;;;;;3.70;1.80;;;;;;;14.39;43.57;98526.66;8484627;28;20221;-71
2023/05/19 01:18:07;;;;;;;5.57;2.20;;;;;;;14.43;43.72;98524.69;8484595;27;20224;-71
2023/05/19 01:22:29;;;;;;;3.33;1.70;;;;;;;14.44;43.69;98518.56;8484357;27;20226;-71
2023/05/19 01:27:19;;;;;;;5.50;1.70;;;;;;;14.41;43.78;98526.53;8484195;27;20522;-71
2023/05/19 01:31:25;;;;;;;4.73;2.00;;;;;;;14.13;44.23;98485.44;8418031;28;20232;-71
2023/05/19 01:35:29;;;;;;;4.80;1.90;;;;;;;14.42;44.03;98515.22;8484261;28;20529;-71
2023/05/19 01:39:33;;;;;;;4.77;2.20;;;;;;;14.34;44.20;98513.00;8484227;28;20535;-71
2023/05/19 01:43:36;;;;;;;4.40;1.77;;;;;;;14.36;44.37;98516.38;8483959;27;20357;-71
2023/05/19 01:47:42;;;;;;;3.60;2.00;;;;;;;14.38;44.15;98516.28;8483974;27;20224;-71
2023/05/19 01:51:45;;;;;;;4.43;1.90;;;;;;;14.36;44.02;98513.75;8483891;28;20244;-71
2023/05/19 01:55:50;;;;;;;6.00;1.97;;;;;;;14.38;44.06;98522.34;8483637;27;20224;-71
2023/05/19 02:00:04;;;;;;;5.63;2.10;;;;;;;14.31;44.24;98518.34;8483215;27;20226;-71
2023/05/19 02:04:17;;;;;;;4.13;1.87;;;;;;;14.16;44.39;98509.53;8483293;27;20533;-71
2023/05/19 02:08:24;;;;;;;4.00;1.80;;;;;;;14.19;44.73;98519.81;8474558;28;20240;-72
2023/05/19 02:12:29;;;;;;;3.53;1.60;;;;;;;14.23;44.49;98518.75;8481801;27;20225;-71
2023/05/19 02:16:33;;;;;;;3.40;1.80;;;;;;;14.20;44.85;98518.91;8482843;27;20289;-71
2023/05/19 02:20:37;;;;;;;3.30;1.93;;;;;;;14.18;44.95;98507.69;8482627;27;20241;-71
2023/05/19 02:24:40;;;;;;;4.03;1.73;;;;;;;14.30;44.83;98514.09;8482677;28;20406;-71
2023/05/19 02:28:42;;;;;;;4.43;2.23;;;;;;;14.17;44.92;98511.25;8482365;27;20277;-71
2023/05/19 02:32:45;;;;;;;4.17;2.00;;;;;;;13.62;44.92;98396.84;8482416;27;20230;-71
2023/05/19 02:36:50;;;;;;;5.43;2.00;;;;;;;14.22;45.22;98509.25;8482407;28;20229;-71
2023/05/19 02:40:53;;;;;;;4.27;2.07;;;;;;;14.07;45.32;98497.84;8482184;27;20237;-71
2023/05/19 02:44:56;;;;;;;3.30;1.90;;;;;;;14.16;44.99;98493.91;8481916;27;20286;-71
2023/05/19 02:48:59;;;;;;;4.97;2.20;;;;;;;13.92;44.47;98443.06;8481580;28;20237;-71
2023/05/19 02:53:03;;;;;;;4.37;1.80;;;;;;;14.22;45.22;98482.34;8481669;28;20233;-71
2023/05/19 02:57:06;;;;;;;3.43;1.80;;;;;;;14.19;44.90;98488.56;8480996;27;20335;-71
2023/05/19 03:01:09;;;;;;;3.23;1.87;;;;;;;14.21;44.78;98483.28;8481284;28;20237;-71
2023/05/19 03:05:13;;;;;;;4.57;1.90;;;;;;;14.17;44.92;98482.59;8481193;27;20572;-71
2023/05/19 03:09:17;;;;;;;5.13;2.20;;;;;;;14.08;44.65;98488.25;8481373;28;20232;-71
2023/05/19 03:13:20;;;;;;;3.80;1.90;;;;;;;14.02;44.76;98467.75;8480684;27;20327;-71
2023/05/19 03:17:23;;;;;;;3.57;1.93;;;;;;;14.17;45.09;98492.19;8480859;28;20334;-71
2023/05/19 03:21:26;;;;;;;4.50;2.03;;;;;;;14.22;45.10;98493.63;8480917;27;20227;-71
2023/05/19 03:25:30;;;;;;;4.20;2.00;;;;;;;14.17;45.06;98489.56;8480547;27;20476;-71
2023/05/19 03:29:33;;;;;;;5.30;1.90;;;;;;;14.18;45.22;98492.06;8480120;28;20554;-71
2023/05/19 03:33:36;;;;;;;5.73;2.17;;;;;;;14.14;45.22;98484.50;8479407;28;20233;-71
2023/05/19 03:37:39;;;;;;;5.10;2.20;;;;;;;14.06;45.53;98464.06;8480532;27;20260;-71
2023/05/19 03:41:43;;;;;;;4.53;2.10;;;;;;;14.05;45.56;98486.66;8480403;28;20229;-71
2023/05/19 03:45:46;;;;;;;3.90;1.90;;;;;;;14.17;45.41;98492.19;8480123;28;20231;-71
2023/05/19 03:49:49;;;;;;;4.40;1.90;;;;;;;13.93;45.34;98452.56;8480023;27;20244;-71
2023/05/19 03:53:52;;;;;;;3.67;1.93;;;;;;;14.22;45.47;98506.66;8480051;28;20235;-71
2023/05/19 03:57:58;;;;;;;5.57;2.00;;;;;;;14.27;45.48;98506.41;8480075;28;20433;-71
2023/05/19 04:02:01;;;;;;;4.43;2.13;;;;;;;14.26;45.06;98510.78;8479480;27;20256;-71
2023/05/19 04:06:04;;;;;;;3.40;1.90;;;;;;;14.33;45.21;98521.72;8479381;28;20240;-71
2023/05/19 04:10:08;;;;;;;4.77;1.90;;;;;;;14.18;45.47;98501.66;8479523;27;20228;-71
2023/05/19 04:14:12;;;;;;;5.97;2.13;;;;;;;14.35;45.59;98506.03;8479498;28;20220;-71
2023/05/19 04:18:15;;;;;;;4.67;2.10;;;;;;;14.31;45.69;98520.97;8479171;28;20528;-71
2023/05/19 04:22:18;;;;;;;5.30;2.00;;;;;;;14.38;45.33;98519.72;8470529;27;20427;-73
2023/05/19 04:26:21;;;;;;;3.70;2.10;;;;;;;14.40;45.67;98520.50;8479331;28;20434;-71
2023/05/19 04:30:25;;;;;;;2.97;1.90;;;;;;;14.50;45.48;98526.06;8478842;28;20239;-71
2023/05/19 04:34:28;;;;;;;3.83;2.13;;;;;;;14.53;45.97;98525.94;8479907;27;20507;-71
2023/05/19 04:38:31;;;;;;;4.23;1.87;;;;;;;14.46;45.54;98520.16;8485901;27;20232;-71
2023/05/19 04:42:33;;;;;;;2.90;1.90;;;;;;;14.39;45.92;98524.03;8485743;27;20335;-71
2023/05/19 04:46:38;;;;;;;4.83;2.30;;;;;;;14.13;45.97;98462.84;8485431;27;20225;-71
2023/05/19 04:50:41;;;;;;;5.33;2.10;;;;;;;14.59;45.62;98519.59;8485532;27;20289;-71
2023/05/19 04:54:44;;;;;;;4.80;1.90;;;;;;;14.62;46.16;98528.09;8485455;28;20299;-69
2023/05/19 04:58:47;;;;;;;4.17;2.10;;;;;;;14.80;45.86;98525.44;8485322;27;20226;-69
2023/05/19 05:02:51;;;;;;;5.50;2.10;;;;;;;14.75;45.49;98520.44;8485058;27;20236;-70
2023/05/19 05:06:54;;;;;;;6.30;2.43;;;;;;;14.74;46.07;98521.41;8485296;27;20234;-70
2023/05/19 05:10:58;;;;;;;5.17;2.10;;;;;;;14.93;46.21;98523.88;8485160;27;20548;-70
2023/05/19 05:15:01;;;;;;;4.40;2.03;;;;;;;14.91;46.15;98517.91;8485094;28;20248;-70
2023/05/19 05:19:06;;;;;;;4.13;2.23;;;;;;;14.91;46.00;98514.44;8484471;27;20524;-69
2023/05/19 05:23:09;;;;;;;4.60;2.23;;;;;;;14.44;45.54;98411.75;8484840;27;20234;-70
2023/05/19 05:27:12;;;;;;;5.03;2.43;;;;;;;15.10;45.44;98506.44;8484762;28;20228;-70
2023/05/19 05:31:15;;;;;;;4.90;2.10;;;;;;;15.03;45.06;98478.09;8484316;27;20305;-70
2023/05/19 05:35:22;;;;;;;3.70;2.40;;;;;;;14.95;45.07;98490.72;8475448;28;20252;-71
2023/05/19 05:39:26;;;;;;;4.77;2.00;;;;;;;14.92;44.88;98506.53;8484234;27;20261;-70
2023/05/19 05:43:28;;;;;;;4.27;2.17;;;;;;;14.94;45.35;98506.44;8483760;28;20230;-70
2023/05/19 05:47:32;;;;;;;3.90;1.97;;;;;;;15.05;45.83;98496.28;8484044;27;20223;-70
2023/05/19 05:51:37;;;;;;;5.17;2.30;;;;;;;15.23;45.96;98495.28;8483717;27;20249;-70
2023/05/19 05:55:40;;;;;;;3.40;2.00;;;;;;;15.28;45.65;98502.84;8483864;28;20221;-70
2023/05/19 05:59:44;;;;;;;4.23;2.10;;;;;;;15.42;46.22;98509.91;8483548;28;20556;-70
2023/05/19 06:03:47;;;;;;;3.53;2.30;;;;;;;15.56;45.69;98506.56;8483338;27;20282;-70
2023/05/19 06:07:51;;;;;;;6.43;2.30;;;;;;;15.66;45.62;98514.72;8483225;27;20404;-70
2023/05/19 06:11:54;;;;;;;3.17;2.00;;;;;;;15.53;45.01;98498.88;8483182;28;20234;-70
2023/05/19 06:15:57;;;;;;;4.80;2.17;;;;;;;15.76;46.07;98506.31;8483038;28;20222;-69
2023/05/19 06:20:03;;;;;;;5.10;2.03;;;;;;;15.74;45.50;98499.47;8482703;28;20222;-69
2023/05/19 06:24:07;;;;;;;6.83;2.23;;;;;;;15.63;45.37;98506.13;8482580;27;20293;-69
2023/05/19 06:28:10;;;;;;;5.77;2.27;;;;;;;15.61;45.03;98507.13;8482600;28;20225;-70
2023/05/19 06:32:13;;;;;;;7.37;2.50;;;;;;;15.79;43.88;98507.91;8482369;27;20230;-70
2023/05/19 06:36:16;;;;;;;4.03;2.20;;;;;;;15.74;44.55;98500.31;8482261;27;20227;-70
2023/05/19 06:40:20;;;;;;;6.23;3.03;;;;;;;15.93;43.55;98507.09;8473234;28;20298;-70
2023/05/19 06:44:23;;;;;;;5.47;2.20;;;;;;;15.66;44.90;98496.44;8482194;27;20519;-70
2023/05/19 06:48:26;;;;;;;3.97;2.13;;;;;;;15.59;44.50;98506.34;8481955;28;20230;-69
2023/05/19 06:52:30;;;;;;;5.80;2.30;;;;;;;16.26;43.06;98503.44;8481923;27;20223;-70
2023/05/19 06:56:35;;;;;;;6.27;2.47;;;;;;;15.66;44.04;98504.25;8481509;27;20293;-71
2023/05/19 07:00:38;;;;;;;3.93;2.13;;;;;;;16.37;44.32;98501.91;8480733;28;20250;-70
2023/05/19 07:04:41;;;;;;;4.03;2.30;;;;;;;16.67;43.57;98503.56;8480907;28;20219;-70
2023/05/19 07:08:44;;;;;;;6.57;2.77;;;;;;;15.81;43.80;98488.59;8481021;28;20286;-71
2023/05/19 07:12:49;;;;;;;5.70;2.37;;;;;;;16.82;43.55;98499.22;8481035;28;20227;-71
2023/05/19 07:16:52;;;;;;;4.70;2.70;;;;;;;16.01;44.04;98497.03;8481102;28;20238;-71
2023/05/19 07:20:56;;;;;;;5.63;2.57;;;;;;;16.23;44.09;98499.25;8481065;28;20227;-71
2023/05/19 07:24:59;;;;;;;4.00;2.30;;;;;;;17.04;43.02;98490.91;8480486;28;20337;-71
2023/05/19 07:29:03;;;;;;;8.00;2.47;;;;;;;16.66;43.75;98482.75;8480481;28;20402;-71
2023/05/19 07:33:07;;;;;;;5.43;2.43;;;;;;;15.88;44.63;98465.59;8480348;27;20273;-71
2023/05/19 07:37:10;;;;;;;3.77;2.20;;;;;;;16.15;43.33;98480.56;8480553;27;20378;-69
2023/05/19 07:41:13;;;;;;;6.27;2.17;;;;;;;16.66;43.61;98477.50;8480345;28;20249;-71
2023/05/19 07:45:17;;;;;;;5.97;2.97;;;;;;;16.22;43.28;98480.13;8480547;27;20333;-71
2023/05/19 07:49:20;;;;;;;4.67;2.80;;;;;;;17.10;42.83;98446.03;8479980;27;20233;-71
2023/05/19 07:53:23;;;;;;;5.60;2.17;;;;;;;16.63;42.74;98475.94;8479925;28;20227;-71
2023/05/19 07:57:25;;;;;;;3.87;2.20;;;;;;;15.45;43.03;98293.97;8479840;28;20223;-70
2023/05/19 08:01:31;;;;;;;4.90;2.37;;;;;;;17.28;42.44;98470.16;8479520;27;20240;-70
2023/05/19 08:05:34;;;;;;;6.17;2.13;;;;;;;16.83;41.75;98466.91;8479571;28;20298;-70
2023/05/19 08:09:37;;;;;;;5.53;2.57;;;;;;;17.08;42.04;98463.59;8478366;28;20292;-70
2023/05/19 08:13:39;;;;;;;3.23;2.03;;;;;;;17.44;41.85;98461.34;8479429;27;20420;-70
2023/05/19 08:17:44;;;;;;;4.47;2.00;;;;;;;17.44;40.31;98456.09;8479233;28;20222;-70
2023/05/19 08:21:47;;;;;;;4.07;1.90;;;;;;;17.47;40.42;98455.91;8479014;28;20272;-70
2023/05/19 08:25:50;;;;;;;3.37;1.80;;;;;;;16.98;40.97;98442.41;8479055;28;20225;-71
2023/05/19 08:29:54;;;;;;;2.53;1.83;;;;;;;17.51;41.10;98452.16;8478971;27;20576;-70
2023/05/19 08:33:58;;;;;;;3.17;2.10;;;;;;;17.98;41.19;98449.03;8479084;28;20460;-71
2023/05/19 08:38:01;;;;;;;4.33;2.00;;;;;;;17.22;40.83;98433.94;8479062;28;20636;-70
2023/05/19 08:42:04;;;;;;;3.67;2.27;;;;;;;16.85;42.52;98441.50;8478756;27;20230;-70
2023/05/19 08:46:07;;;;;;;2.87;1.93;;;;;;;17.21;42.26;98437.50;8478841;28;20223;-70
2023/05/19 08:50:13;;;;;;;4.80;2.03;;;;;;;16.86;41.28;98410.94;8478967;28;20457;-70
2023/05/19 08:54:17;;;;;;;3.30;1.97;;;;;;;16.91;40.30;98403.66;8478912;27;20298;-70
2023/05/19 08:58:21;;;;;;;3.40;2.00;;;;;;;17.34;41.24;98425.31;8478397;28;20287;-71
2023/05/19 09:02:24;;;;;;;25.93;9.77;;;;;;;17.55;40.62;98427.44;8478548;28;20246;-70
2023/05/19 09:06:31;;;;;;;3.83;2.03;;;;;;;17.60;40.29;98420.13;8478755;27;20235;-70
2023/05/19 09:10:33;;;;;;;3.17;2.07;;;;;;;17.18;40.85;98412.34;8478457;28;20238;-70
2023/05/19 09:14:36;;;;;;;2.77;2.10;;;;;;;16.88;41.47;98406.44;8478228;28;20350;-70
2023/05/19 09:18:39;;;;;;;6.90;3.33;;;;;;;16.72;41.31;98404.78;8478259;28;20225;-70
2023/05/19 09:22:46;;;;;;;6.33;4.73;;;;;;;17.39;40.25;98417.97;8482596;28;20225;-71
2023/05/19 09:26:50;;;;;;;4.40;2.20;;;;;;;17.41;40.19;98411.81;8484765;27;20539;-70
2023/05/19 09:31:00;;;;;;;3.17;1.70;;;;;;;17.02;41.40;98410.81;8484911;27;20227;-70
2023/05/19 09:35:03;;;;;;;3.50;1.73;;;;;;;16.86;41.06;98410.94;8484439;28;20237;-70
2023/05/19 09:39:14;;;;;;;2.80;1.67;;;;;;;16.80;40.92;98410.34;8484233;27;20226;-70
2023/05/19 09:43:17;;;;;;;1.90;1.70;;;;;;;17.06;40.70;98407.91;8484364;27;20567;-70
2023/05/19 09:47:20;;;;;;;4.43;1.87;;;;;;;17.37;40.10;98405.94;8483580;28;20233;-70
2023/05/19 09:51:23;;;;;;;4.57;1.60;;;;;;;17.33;39.48;98334.59;8483850;27;20236;-70
2023/05/19 09:55:28;;;;;;;4.00;1.70;;;;;;;17.63;39.14;98414.69;8483638;28;20234;-70
2023/05/19 09:59:32;;;;;;;2.73;1.83;;;;;;;17.72;39.77;98413.22;8483876;27;20233;-70
2023/05/19 10:03:36;;;;;;;5.20;3.70;;;;;;;17.71;39.76;98407.16;8483448;27;20246;-70
2023/05/19 10:07:40;;;;;;;5.57;4.20;;;;;;;17.10;39.27;98322.22;8483031;27;20236;-69
2023/05/19 10:11:44;;;;;;;5.73;2.30;;;;;;;17.25;39.68;98399.72;8483129;28;20234;-71
2023/05/19 10:15:47;;;;;;;7.57;4.73;;;;;;;17.92;38.83;98396.22;8483220;27;20224;-71
2023/05/19 10:20:01;;;;;;;3.43;2.83;;;;;;;18.00;38.18;98393.91;8483046;27;20376;-72
2023/05/19 10:24:03;;;;;;;2.10;1.90;;;;;;;17.45;39.38;98363.53;8482531;28;20253;-71
2023/05/19 10:28:10;;;;;;;5.23;2.10;;;;;;;17.74;38.41;98383.41;8482681;27;20447;-71
2023/05/19 10:32:15;;;;;;;5.07;2.07;;;;;;;17.69;38.65;98385.47;8481627;28;20230;-72
2023/05/19 10:36:37;;;;;;;2.10;1.47;;;;;;;18.14;37.37;98364.13;8481799;28;20510;-72
2023/05/19 10:40:44;;;;;;;5.53;1.80;;;;;;;18.87;36.68;98358.16;8482168;27;20229;-71
2023/05/19 10:44:57;;;;;;;3.30;1.87;;;;;;;19.33;36.85;98352.16;8481871;27;20222;-71
2023/05/19 10:49:00;;;;;;;3.50;1.63;;;;;;;19.65;36.46;98350.72;8481652;27;20252;-72
2023/05/19 10:53:03;;;;;;;3.50;1.90;;;;;;;19.75;36.87;98359.59;8480280;27;20226;-71
2023/05/19 10:57:06;;;;;;;5.73;2.30;;;;;;;18.84;37.23;98357.53;8481810;28;20453;-71
2023/05/19 11:01:13;;;;;;;2.30;1.83;;;;;;;19.18;35.37;98352.47;8480911;28;20234;-71
2023/05/19 11:05:18;;;;;;;1.87;1.47;;;;;;;19.25;36.09;98348.44;8481300;27;20238;-71
2023/05/19 11:09:22;;;;;;;4.00;1.93;;;;;;;18.43;36.55;98354.25;8481015;28;20276;-72
2023/05/19 11:13:43;;;;;;;2.53;1.50;;;;;;;19.39;36.50;98352.66;8481056;27;20237;-71
2023/05/19 11:17:48;;;;;;;4.97;1.80;;;;;;;19.85;35.89;98349.22;8480998;27;20223;-72
2023/05/19 11:21:53;;;;;;;2.07;1.87;;;;;;;20.07;36.08;98351.03;8480900;28;20229;-71
2023/05/19 11:25:56;;;;;;;2.17;1.77;;;;;;;19.43;35.58;98349.69;8480861;28;20234;-72
2023/05/19 11:30:00;;;;;;;2.13;1.60;;;;;;;19.99;37.03;98338.50;8480699;28;20223;-71
2023/05/19 11:34:07;;;;;;;2.13;1.70;;;;;;;20.04;36.55;98343.38;8480367;28;20230;-71
2023/05/19 11:38:10;;;;;;;2.67;1.80;;;;;;;20.19;35.57;98312.44;8480766;28;20231;-71
2023/05/19 11:42:14;;;;;;;3.07;1.40;;;;;;;21.36;34.84;98330.22;8479861;28;20534;-71
2023/05/19 11:46:18;;;;;;;1.77;1.67;;;;;;;19.69;34.75;98326.69;8476255;27;20228;-71
2023/05/19 11:50:22;;;;;;;3.50;2.10;;;;;;;19.71;34.60;98330.06;8487900;27;20228;-72
2023/05/19 11:54:30;;;;;;;2.93;1.87;;;;;;;19.77;35.98;98292.00;8479639;28;20233;-72
2023/05/19 11:58:33;;;;;;;1.73;1.60;;;;;;;20.04;34.83;98314.47;8480437;27;20229;-72
2023/05/19 12:02:36;;;;;;;2.63;2.00;;;;;;;19.91;34.97;98314.56;8480148;28;20238;-72
2023/05/19 12:06:41;;;;;;;3.33;2.00;;;;;;;20.83;33.39;98314.41;8480192;28;20404;-72
2023/05/19 12:10:43;;;;;;;2.20;1.63;;;;;;;21.39;32.70;98281.72;8479941;28;20229;-72
2023/05/19 12:14:47;;;;;;;2.60;1.90;;;;;;;22.20;33.11;98285.34;8479216;27;20544;-72
2023/05/19 12:18:50;;;;;;;1.73;1.43;;;;;;;22.28;31.43;98282.06;8479056;28;20223;-69
2023/05/19 12:22:55;;;;;;;632.50;557.90;;;;;;;23.15;31.95;98289.31;8479037;27;20234;-70
2023/05/19 12:27:06;;;;;;;7.73;6.67;;;;;;;21.66;33.83;98279.41;8479397;28;20254;-70
2023/05/19 12:31:09;;;;;;;5.97;3.63;;;;;;;21.18;37.27;98285.16;8478967;28;20223;-71
2023/05/19 12:35:12;;;;;;;4.17;2.87;;;;;;;21.67;36.23;98283.72;8478939;28;20255;-70
2023/05/19 12:39:16;;;;;;;4.10;2.00;;;;;;;20.79;33.85;98282.22;8478929;27;20255;-70
2023/05/19 12:43:21;;;;;;;2.63;1.77;;;;;;;21.68;32.24;98260.81;8478308;28;20235;-68
2023/05/19 12:47:30;;;;;;;5.10;4.60;;;;;;;21.71;33.93;98268.47;8478619;28;20283;-69
2023/05/19 12:51:33;;;;;;;2.40;1.90;;;;;;;21.71;35.22;98272.94;8478979;27;20544;-68
2023/05/19 12:55:39;;;;;;;3.83;2.10;;;;;;;21.33;34.54;98267.25;8480038;28;20237;-68
2023/05/19 12:59:42;;;;;;;2.13;1.70;;;;;;;21.28;32.89;98251.84;8485632;27;20298;-68
2023/05/19 13:03:46;;;;;;;2.83;2.00;;;;;;;21.49;33.27;98266.81;8485670;28;20226;-68
2023/05/19 13:07:54;;;;;;;1.90;1.80;;;;;;;21.18;33.62;98261.47;8485957;28;20476;-68
2023/05/19 13:11:59;;;;;;;1.80;1.70;;;;;;;21.43;32.98;98246.25;8485016;28;20267;-68
2023/05/19 13:16:02;;;;;;;2.93;1.80;;;;;;;21.55;34.52;98252.28;8485268;28;20403;-67
2023/05/19 13:20:06;;;;;;;3.13;1.70;;;;;;;21.27;31.85;98165.88;8485369;27;20401;-69
2023/05/19 13:24:09;;;;;;;1.93;1.60;;;;;;;22.34;32.51;98247.22;8485089;27;20492;-69
2023/05/19 13:28:13;;;;;;;3.13;1.80;;;;;;;22.38;33.17;98242.50;8484965;27;20227;-68
2023/05/19 13:32:16;;;;;;;1.97;1.77;;;;;;;21.69;33.05;98238.78;8484863;27;20227;-69
2023/05/19 13:36:19;;;;;;;3.30;1.90;;;;;;;22.28;32.47;98231.94;8483417;28;20408;-70
2023/05/19 13:40:22;;;;;;;3.47;1.90;;;;;;;21.72;33.12;98227.13;8484788;27;20226;-68
2023/05/19 13:44:26;;;;;;;1.83;1.70;;;;;;;21.75;33.62;98226.88;8484004;28;20234;-69
2023/05/19 13:48:29;;;;;;;4.13;1.97;;;;;;;21.73;32.56;98236.72;8484345;28;20227;-69
2023/05/19 13:52:32;;;;;;;2.15;1.80;;;;;;;21.58;32.78;98144.00;8483038;27;20657;-70
2023/05/19 13:56:35;;;;;;;1.77;1.57;;;;;;;21.76;34.32;98233.81;8483925;27;20495;-70
2023/05/19 14:00:39;;;;;;;2.43;1.93;;;;;;;21.31;33.52;98228.84;8483706;28;20250;-70
2023/05/19 14:04:42;;;;;;;1.87;1.40;;;;;;;21.83;34.24;98219.16;8483637;28;20227;-70
2023/05/19 14:08:48;;;;;;;2.47;1.50;;;;;;;22.05;33.44;98215.47;8482311;27;20222;-70
2023/05/19 14:12:52;;;;;;;2.03;1.80;;;;;;;21.83;33.39;98214.69;8483297;28;20292;-70
2023/05/19 14:17:05;;;;;;;1.70;1.60;;;;;;;21.79;33.56;98213.31;8482890;27;20376;-70
2023/05/19 14:21:08;;;;;;;2.43;1.60;;;;;;;21.78;32.93;98190.56;8483255;27;20403;-69
2023/05/19 14:25:11;;;;;;;2.57;1.63;;;;;;;21.59;32.85;98207.13;8483080;27;20227;-70
2023/05/19 14:29:13;;;;;;;2.63;1.70;;;;;;;21.60;33.62;98186.88;8482740;28;20413;-70
2023/05/19 14:33:19;;;;;;;1.50;1.40;;;;;;;21.52;33.19;98198.06;8482815;27;20535;-70
2023/05/19 14:37:22;;;;;;;1.53;1.43;;;;;;;21.56;34.19;98204.75;8448538;28;20245;-70
2023/05/19 14:41:25;;;;;;;1.83;1.60;;;;;;;21.08;34.05;98207.91;8448141;28;20376;-70
2023/05/19 14:45:28;;;;;;;2.10;1.43;;;;;;;21.23;33.58;98195.25;8448370;27;20236;-69
2023/05/19 14:49:33;;;;;;;2.10;1.60;;;;;;;21.24;33.99;98200.38;8448069;28;20238;-70
2023/05/19 14:53:36;;;;;;;2.40;1.30;;;;;;;21.12;33.87;98197.97;8447940;28;20230;-70
2023/05/19 14:57:39;;;;;;;2.27;1.60;;;;;;;21.06;33.76;98188.78;8447934;28;20338;-69
2023/05/19 15:01:41;;;;;;;3.20;1.70;;;;;;;21.43;33.76;98191.75;8447273;28;20223;-70
2023/05/19 15:05:46;;;;;;;2.73;1.57;;;;;;;21.14;33.09;98188.13;8447502;27;20232;-69
2023/05/19 15:09:48;;;;;;;3.63;1.93;;;;;;;21.03;33.47;98160.91;8447508;27;20229;-69
2023/05/19 15:13:51;;;;;;;2.00;1.70;;;;;;;21.45;33.68;98186.38;8447003;28;20234;-70
2023/05/19 15:17:54;;;;;;;2.47;1.60;;;;;;;21.34;34.06;98182.00;8446408;28;20231;-70
2023/05/19 15:21:58;;;;;;;3.93;1.70;;;;;;;21.29;34.41;98195.56;8447088;28;20242;-70
2023/05/19 15:26:01;;;;;;;3.33;2.00;;;;;;;21.35;35.28;98193.38;8447045;28;20246;-69
2023/05/19 15:30:05;;;;;;;2.77;1.43;;;;;;;21.17;34.83;98179.97;8446824;28;20241;-70
2023/05/19 15:34:08;;;;;;;1.60;1.50;;;;;;;20.82;34.55;98200.38;8446439;28;20219;-70
2023/05/19 15:38:13;;;;;;;2.43;1.90;;;;;;;20.95;34.97;98196.75;8446941;28;20230;-70
2023/05/19 15:42:15;;;;;;;2.90;1.90;;;;;;;21.06;34.67;98189.59;8446719;27;20535;-70
2023/05/19 15:46:18;;;;;;;1.70;1.60;;;;;;;21.38;35.42;98193.97;8471332;28;20234;-70
2023/05/19 15:50:21;;;;;;;2.33;1.63;;;;;;;21.15;34.81;98197.69;8480217;27;20464;-70
2023/05/19 15:54:25;;;;;;;5.33;2.00;;;;;;;20.80;34.52;98196.22;8480103;28;20447;-70
2023/05/19 15:58:28;;;;;;;3.17;1.90;;;;;;;20.86;35.49;98187.81;8479981;28;20233;-70
2023/05/19 16:02:31;;;;;;;5.50;2.20;;;;;;;20.85;35.68;98189.59;8479893;28;20414;-70
2023/05/19 16:06:34;;;;;;;3.10;2.20;;;;;;;20.48;36.31;98189.94;8480022;27;20227;-71
2023/05/19 16:10:38;;;;;;;2.80;2.40;;;;;;;20.80;37.15;98168.09;8479774;27;20227;-71
2023/05/19 16:14:41;;;;;;;3.70;2.60;;;;;;;20.75;37.79;98179.97;8479831;28;20229;-71
2023/05/19 16:18:44;;;;;;;3.17;2.10;;;;;;;20.80;36.80;98175.97;8479652;28;20223;-71
2023/05/19 16:22:47;;;;;;;2.70;2.50;;;;;;;20.41;37.30;98174.78;8479557;27;20229;-71
2023/05/19 16:26:52;;;;;;;2.63;2.20;;;;;;;20.41;37.21;98180.06;8479342;27;20225;-71
2023/05/19 16:30:57;;;;;;;3.10;2.80;;;;;;;20.19;38.20;98179.16;8481399;28;20224;-70
2023/05/19 16:35:00;;;;;;;4.40;2.60;;;;;;;19.80;38.81;98177.91;8486556;28;20499;-70
2023/05/19 16:39:03;;;;;;;5.30;2.10;;;;;;;19.99;38.47;98172.91;8486658;27;20545;-70
2023/05/19 16:43:07;;;;;;;2.10;1.90;;;;;;;19.94;38.03;98176.84;8486221;27;20228;-70
2023/05/19 16:47:10;;;;;;;2.40;1.87;;;;;;;20.12;38.46;98180.63;8485896;28;20514;-71
2023/05/19 16:51:12;;;;;;;2.40;2.03;;;;;;;20.17;38.55;98181.09;8485802;27;20332;-71
2023/05/19 16:55:18;;;;;;;2.57;2.20;;;;;;;20.20;38.62;98169.47;8485972;27;20235;-71
2023/05/19 16:59:23;;;;;;;3.60;2.10;;;;;;;20.28;38.49;98174.97;8477244;28;20254;-71
2023/05/19 17:03:26;;;;;;;2.93;2.27;;;;;;;20.04;38.95;98175.97;8485359;27;20232;-71
2023/05/19 17:07:29;;;;;;;4.00;1.93;;;;;;;19.85;37.79;98186.28;8485338;27;20233;-72
2023/05/19 17:11:31;;;;;;;1.83;1.73;;;;;;;19.92;38.43;98177.78;8485326;28;20251;-71
2023/05/19 17:15:36;;;;;;;2.67;1.60;;;;;;;19.59;38.85;98170.75;8485028;27;20573;-70
2023/05/19 17:19:38;;;;;;;1.70;1.60;;;;;;;19.65;39.11;98172.91;8484876;27;20275;-70
2023/05/19 17:23:41;;;;;;;2.60;1.77;;;;;;;19.87;39.60;98163.34;8484729;27;20242;-70
2023/05/19 17:27:44;;;;;;;2.77;2.47;;;;;;;19.47;39.96;98166.44;8484681;28;20225;-70
2023/05/19 17:31:48;;;;;;;7.10;2.20;;;;;;;19.68;41.08;98175.25;8484531;27;20231;-70
2023/05/19 17:35:51;;;;;;;2.13;1.50;;;;;;;19.26;39.85;98175.00;8484501;28;20231;-70
2023/05/19 17:39:54;;;;;;;4.03;2.23;;;;;;;19.45;40.46;98169.19;8484557;27;20230;-70
2023/05/19 17:43:57;;;;;;;5.60;2.30;;;;;;;19.48;41.08;98163.69;8483470;27;20255;-70
2023/05/19 17:48:02;;;;;;;2.97;2.70;;;;;;;19.43;41.69;98180.78;8483671;27;20231;-70
2023/05/19 17:52:05;;;;;;;4.53;2.13;;;;;;;19.02;41.25;98180.38;8483780;28;20464;-70
2023/05/19 17:56:10;;;;;;;3.95;2.05;;;;;;;19.08;40.50;98166.78;8482097;27;20416;-71
2023/05/19 18:00:14;;;;;;;2.03;1.90;;;;;;;18.81;41.45;98187.19;8483634;27;20227;-70
2023/05/19 18:04:19;;;;;;;2.23;1.90;;;;;;;18.79;41.41;98179.44;8483340;27;20243;-71
2023/05/19 18:08:23;;;;;;;3.53;1.70;;;;;;;18.87;41.50;98171.03;8475199;27;20224;-71
2023/05/19 18:12:26;;;;;;;2.53;1.70;;;;;;;19.16;41.05;98173.22;8482822;27;20224;-72
2023/05/19 18:16:29;;;;;;;2.27;2.07;;;;;;;19.01;41.63;98186.56;8482794;27;20246;-71
2023/05/19 18:20:34;;;;;;;3.10;1.70;;;;;;;19.05;41.52;98188.00;8482784;27;20233;-69
2023/05/19 18:24:37;;;;;;;2.67;1.83;;;;;;;19.05;42.15;98189.78;8482302;27;20257;-69
2023/05/19 18:28:40;;;;;;;3.40;2.00;;;;;;;18.92;41.85;98177.59;8482514;28;20232;-71
2023/05/19 18:32:43;;;;;;;1.90;1.80;;;;;;;18.76;42.52;98182.28;8481894;27;20494;-72
2023/05/19 18:36:47;;;;;;;2.73;2.53;;;;;;;19.03;42.50;98184.66;8482150;27;20506;-71
2023/05/19 18:40:50;;;;;;;2.93;1.97;;;;;;;18.42;43.19;98184.75;8482054;27;20574;-71
2023/05/19 18:44:56;;;;;;;3.65;2.60;;;;;;;19.05;42.07;98187.16;8480002;28;20408;-71
2023/05/19 18:48:59;;;;;;;2.83;1.90;;;;;;;18.63;43.32;98187.59;8481440;27;20222;-71
2023/05/19 18:53:03;;;;;;;4.10;2.93;;;;;;;18.78;43.09;98193.50;8481263;28;20219;-71
2023/05/19 18:57:06;;;;;;;2.23;2.00;;;;;;;18.76;43.24;98190.16;8481570;28;20223;-71
2023/05/19 19:01:09;;;;;;;2.70;1.80;;;;;;;18.51;43.63;98199.81;8481217;28;20448;-71
2023/05/19 19:05:12;;;;;;;3.40;2.23;;;;;;;18.46;44.46;98204.56;8481350;28;20223;-71
2023/05/19 19:09:16;;;;;;;2.00;1.83;;;;;;;18.53;44.45;98195.31;8481406;28;20305;-72